createdAt,value
2017-07-30T00:00:22.879Z,94.90
2017-07-30T00:02:49.456Z,94.90
2017-07-30T00:05:16.615Z,94.90
2017-07-30T00:07:43.103Z,94.90
2017-07-30T00:10:10.246Z,95.00
2017-07-30T00:12:38.582Z,95.30
2017-07-30T00:15:05.363Z,95.20
2017-07-30T00:17:31.830Z,95.30
2017-07-30T00:19:58.287Z,95.30
2017-07-30T00:22:24.912Z,95.30
2017-07-30T00:24:51.538Z,95.30
2017-07-30T00:27:18.418Z,95.70
2017-07-30T00:29:45.508Z,95.40
2017-07-30T00:32:12.027Z,95.30
2017-07-30T00:34:40.085Z,95.40
2017-07-30T00:37:06.696Z,95.40
2017-07-30T00:39:33.460Z,95.40
2017-07-30T00:42:00.150Z,95.40
2017-07-30T00:44:26.710Z,95.50
2017-07-30T00:46:53.193Z,95.40
2017-07-30T00:49:20.379Z,95.40
2017-07-30T00:51:46.847Z,95.40
2017-07-30T00:54:13.511Z,95.40
2017-07-30T00:56:40.082Z,95.50
2017-07-30T00:59:06.841Z,95.50
2017-07-30T01:01:34.228Z,95.60
2017-07-30T01:04:01.165Z,95.60
2017-07-30T01:06:28.072Z,95.60
2017-07-30T01:08:54.725Z,95.60
2017-07-30T01:11:21.585Z,95.70
2017-07-30T01:13:48.152Z,96.10
2017-07-30T01:16:14.633Z,95.80
2017-07-30T01:18:41.130Z,95.80
2017-07-30T01:21:07.922Z,95.90
2017-07-30T01:23:34.379Z,95.90
2017-07-30T01:26:01.117Z,95.90
2017-07-30T01:28:27.730Z,95.90
2017-07-30T01:30:54.589Z,96.00
2017-07-30T01:33:21.103Z,96.00
2017-07-30T01:35:48.628Z,96.00
2017-07-30T01:38:15.204Z,96.30
2017-07-30T01:40:42.955Z,96.00
2017-07-30T01:43:09.439Z,96.00
2017-07-30T01:45:36.666Z,96.10
2017-07-30T01:48:05.849Z,96.10
2017-07-30T01:50:32.555Z,96.20
2017-07-30T01:52:59.365Z,96.30
2017-07-30T01:55:25.981Z,96.30
2017-07-30T01:57:52.769Z,96.50
2017-07-30T02:00:19.379Z,96.50
2017-07-30T02:02:47.304Z,96.80
2017-07-30T02:05:13.743Z,96.60
2017-07-30T02:07:40.958Z,96.70
2017-07-30T02:10:22.824Z,96.70
2017-07-30T02:12:50.028Z,96.70
2017-07-30T02:15:16.564Z,96.80
2017-07-30T02:17:43.520Z,96.80
2017-07-30T02:20:10.184Z,96.90
2017-07-30T02:22:36.644Z,96.90
2017-07-30T02:25:03.740Z,96.80
2017-07-30T02:27:30.377Z,96.90
2017-07-30T02:29:56.825Z,96.80
2017-07-30T02:32:24.857Z,96.80
2017-07-30T02:34:51.477Z,96.70
2017-07-30T02:37:17.953Z,96.70
2017-07-30T02:39:44.393Z,96.60
2017-07-30T02:42:10.846Z,96.60
2017-07-30T02:44:37.361Z,96.60
2017-07-30T02:47:03.818Z,96.50
2017-07-30T02:49:30.695Z,96.60
2017-07-30T02:51:57.319Z,96.60
2017-07-30T02:54:24.174Z,96.70
2017-07-30T02:56:50.615Z,96.70
2017-07-30T02:59:17.101Z,96.70
2017-07-30T03:01:43.555Z,96.60
2017-07-30T03:04:10.156Z,96.60
2017-07-30T03:06:37.655Z,96.60
2017-07-30T03:09:04.216Z,96.60
2017-07-30T03:11:30.946Z,96.60
2017-07-30T03:14:41.155Z,96.70
2017-07-30T03:17:07.626Z,96.70
2017-07-30T03:19:34.172Z,96.80
2017-07-30T03:22:00.714Z,96.70
2017-07-30T03:24:27.162Z,96.70
2017-07-30T03:26:53.689Z,96.70
2017-07-30T03:29:21.735Z,96.60
2017-07-30T03:31:48.175Z,96.60
2017-07-30T03:34:14.595Z,96.60
2017-07-30T03:36:41.043Z,96.60
2017-07-30T03:39:08.271Z,96.50
2017-07-30T03:41:34.706Z,96.40
2017-07-30T03:44:01.542Z,96.40
2017-07-30T03:46:28.003Z,96.80
2017-07-30T03:48:54.451Z,96.40
2017-07-30T03:51:21.669Z,96.40
2017-07-30T03:53:48.188Z,96.30
2017-07-30T03:56:14.624Z,96.30
2017-07-30T03:58:42.587Z,96.40
2017-07-30T04:01:09.092Z,96.30
2017-07-30T04:03:35.538Z,96.50
2017-07-30T04:06:02.782Z,96.40
2017-07-30T04:08:29.215Z,96.30
2017-07-30T04:10:59.130Z,96.30
2017-07-30T04:13:25.649Z,96.30
2017-07-30T04:15:52.832Z,95.90
2017-07-30T04:18:19.356Z,96.20
2017-07-30T04:20:45.819Z,96.10
2017-07-30T04:23:12.307Z,96.00
2017-07-30T04:25:39.473Z,95.50
2017-07-30T04:28:06.754Z,95.10
2017-07-30T04:30:33.213Z,95.00
2017-07-30T04:32:59.674Z,94.70
2017-07-30T04:35:26.153Z,94.60
2017-07-30T04:37:52.613Z,95.10
2017-07-30T04:40:19.695Z,93.50
2017-07-30T04:42:46.189Z,91.70
2017-07-30T04:45:13.439Z,83.70
2017-07-30T04:47:54.871Z,82.70
2017-07-30T04:50:21.335Z,76.80
2017-07-30T04:52:47.849Z,72.30
2017-07-30T04:55:14.356Z,68.60
2017-07-30T04:57:41.598Z,64.40
2017-07-30T05:00:08.808Z,58.60
2017-07-30T05:02:35.296Z,58.50
2017-07-30T05:05:01.766Z,55.70
2017-07-30T05:07:28.258Z,53.80
2017-07-30T05:09:54.745Z,52.00
2017-07-30T05:12:21.224Z,50.60
2017-07-30T05:14:47.734Z,49.30
2017-07-30T05:17:14.201Z,47.80
2017-07-30T05:19:40.625Z,46.80
2017-07-30T05:22:07.915Z,45.60
2017-07-30T05:24:35.193Z,44.80
2017-07-30T05:27:01.645Z,44.80
2017-07-30T05:29:28.112Z,44.50
2017-07-30T05:31:54.680Z,43.90
2017-07-30T05:34:21.225Z,43.40
2017-07-30T05:36:47.865Z,42.70
2017-07-30T05:39:15.321Z,41.30
2017-07-30T05:41:42.058Z,41.20
2017-07-30T05:44:08.799Z,41.20
2017-07-30T05:46:36.345Z,40.30
2017-07-30T05:49:03.199Z,39.90
2017-07-30T05:51:29.928Z,39.00
2017-07-30T05:53:56.576Z,38.20
2017-07-30T05:56:23.212Z,37.20
2017-07-30T05:58:49.851Z,35.90
2017-07-30T06:01:17.306Z,34.30
2017-07-30T06:03:44.212Z,33.80
2017-07-30T06:06:12.322Z,32.90
2017-07-30T06:08:39.164Z,32.80
2017-07-30T06:11:05.800Z,32.40
2017-07-30T06:13:32.336Z,32.10
2017-07-30T06:15:58.972Z,31.80
2017-07-30T06:18:25.510Z,31.80
2017-07-30T06:20:52.862Z,31.00
2017-07-30T06:23:19.601Z,31.00
2017-07-30T06:25:46.136Z,30.80
2017-07-30T06:28:12.774Z,30.10
2017-07-30T06:30:39.409Z,29.90
2017-07-30T06:33:06.053Z,30.00
2017-07-30T06:35:32.686Z,30.00
2017-07-30T06:37:59.321Z,29.80
2017-07-30T06:40:25.959Z,28.90
2017-07-30T06:42:52.595Z,28.90
2017-07-30T06:45:19.576Z,28.60
2017-07-30T06:47:46.793Z,28.40
2017-07-30T06:50:13.274Z,28.20
2017-07-30T06:52:39.937Z,27.10
2017-07-30T06:55:06.401Z,27.20
2017-07-30T06:57:32.908Z,26.80
2017-07-30T06:59:59.409Z,26.90
2017-07-30T07:02:26.154Z,27.10
2017-07-30T07:04:52.660Z,26.50
2017-07-30T07:07:19.900Z,26.40
2017-07-30T07:09:46.403Z,26.40
2017-07-30T07:12:13.683Z,26.50
2017-07-30T07:14:40.207Z,26.50
2017-07-30T07:17:06.742Z,26.10
2017-07-30T07:19:33.218Z,26.00
2017-07-30T07:21:59.730Z,26.10
2017-07-30T07:24:26.237Z,26.60
2017-07-30T07:26:52.833Z,26.30
2017-07-30T07:29:20.557Z,25.90
2017-07-30T07:31:47.024Z,25.90
2017-07-30T07:34:14.457Z,25.50
2017-07-30T07:36:41.009Z,25.40
2017-07-30T07:39:09.179Z,25.30
2017-07-30T07:41:35.623Z,25.20
2017-07-30T07:44:03.336Z,24.90
2017-07-30T07:46:30.182Z,24.90
2017-07-30T07:48:57.122Z,25.10
2017-07-30T07:51:23.762Z,25.10
2017-07-30T07:53:50.808Z,24.90
2017-07-30T07:56:17.650Z,24.70
2017-07-30T07:58:45.325Z,25.30
2017-07-30T08:01:13.054Z,25.20
2017-07-30T08:03:40.122Z,25.00
2017-07-30T08:06:06.970Z,25.00
2017-07-30T08:08:33.535Z,25.60
2017-07-30T08:11:00.245Z,25.70
2017-07-30T08:13:28.089Z,25.70
2017-07-30T08:15:54.570Z,25.70
2017-07-30T08:18:21.109Z,26.30
2017-07-30T08:20:48.408Z,26.70
2017-07-30T08:23:15.079Z,27.00
2017-07-30T08:25:42.822Z,27.80
2017-07-30T08:28:09.566Z,28.30
2017-07-30T08:30:36.717Z,28.00
2017-07-30T08:33:03.651Z,28.80
2017-07-30T08:35:31.420Z,28.70
2017-07-30T08:37:59.200Z,29.00
2017-07-30T08:40:26.334Z,30.50
2017-07-30T08:42:53.278Z,32.30
2017-07-30T08:45:19.789Z,34.60
2017-07-30T08:47:46.278Z,35.80
2017-07-30T08:50:13.110Z,37.60
2017-07-30T08:52:40.385Z,38.80
2017-07-30T08:55:07.155Z,40.30
2017-07-30T08:57:33.808Z,41.60
2017-07-30T09:00:00.880Z,42.00
2017-07-30T09:02:27.540Z,42.10
2017-07-30T09:04:54.564Z,42.70
2017-07-30T09:07:21.932Z,43.60
2017-07-30T09:09:50.288Z,44.80
2017-07-30T09:12:17.869Z,44.80
2017-07-30T09:14:44.833Z,45.00
2017-07-30T09:17:11.501Z,45.10
2017-07-30T09:19:38.301Z,45.30
2017-07-30T09:22:04.763Z,45.40
2017-07-30T09:24:31.389Z,45.30
2017-07-30T09:26:58.874Z,46.40
2017-07-30T09:29:25.569Z,45.90
2017-07-30T09:31:53.235Z,45.60
2017-07-30T09:34:19.734Z,45.60
2017-07-30T09:36:46.318Z,45.20
2017-07-30T09:39:12.858Z,45.80
2017-07-30T09:41:40.712Z,45.80
2017-07-30T09:44:08.036Z,45.50
2017-07-30T09:46:34.576Z,45.60
2017-07-30T09:49:01.462Z,46.30
2017-07-30T09:51:27.980Z,46.10
2017-07-30T09:53:55.584Z,46.00
2017-07-30T09:56:22.874Z,46.80
2017-07-30T09:58:49.486Z,46.80
2017-07-30T10:01:16.828Z,45.80
2017-07-30T10:03:43.489Z,45.80
2017-07-30T10:06:10.480Z,46.30
2017-07-30T10:08:37.127Z,46.30
2017-07-30T10:11:04.111Z,45.80
2017-07-30T10:13:30.667Z,45.80
2017-07-30T10:15:57.531Z,46.10
2017-07-30T10:18:24.787Z,46.50
2017-07-30T10:20:51.384Z,46.20
2017-07-30T10:23:18.817Z,47.00
2017-07-30T10:25:46.275Z,47.10
